Aviation Digital Data Service (ADDS)

Output produced by METARs form (0156 UTC 25 February 2018)
found at http://www.aviationweather.gov/adds/metars/
 
OOSA 250050Z 17007KT 9999 FEW025 23/18 Q1012 NOSIG
TAF OOSA 241740Z 2418/2600 18013KT 9999 SCT025 
     BECMG 2421/2423 BKN025 
     BECMG 2506/2508 FEW025 
     BECMG 2516/2518 VRB03KT BKN025
       
OOMS 250050Z 24018KT 8000 NSC 27/13 Q1009 NOSIG
TAF OOMS 242300Z 2500/2606 20018KT 8000 NSC 
     BECMG 2506/2508 06012KT SCT050 
     PROB30 
     TEMPO 2510/2514 -TSRA FEW025CB BKN035 
     BECMG 2518/2520 20012KT 
     PROB30 
     TEMPO 2603/2606 4000 TSRA FEW025CB BKN035